Pilot Resource Center /

Below you can find information for pilots who fly into our airspace


Las Americas (MDSD)

Suggested Departure Runway:

35

Suggested Landing Runway:

35
MDSD 111200Z 36004KT 9999 FEW018 22/21 Q1014
Punta Cana (MDPC)
If no scenery, use runway 9/27

Suggested Departure Runway:

08

Suggested Landing Runway:

08
MDPC 111200Z 05006KT 9999 FEW023 25/21 Q1015 NOSIG
Cibao (MDST)

Suggested Departure Runway:

29

Suggested Landing Runway:

29
MDST 111200Z VRB03KT 0200 FG SCT004 SCT070 19/19 Q1015
Gregorio Luperon (MDPP)

Suggested Departure Runway:

08

Suggested Landing Runway:

08
MDPP 111200Z 00000KT 9999 FEW016 21/20 Q1015

Airport Charts


Las Americas International (MDSD)
Airport Diagram
View
Sectional Chart
View
AVRES 1, DELPO 1, KARIB 1, LECKY 1 Departures (RWY 35)
View
AVRES 2, DELPO 2, KARIB 2, LECKY 2 Departures (RWY 17)
View
BIBOK 1, KERSO 1, KODIX 1, RIBES 1 Departures (RWY 35)
View
BIBOK 2, KERSO 2, KODIX 2, RIBES 2 Departures (RWY 17)
View
PIVAR 1, POBEX 1 Departures (RWY 35)
View
PIVAR 2, POBEX 2 Departures (RWY 17)
View
Runway 17 RNAV Departures
View
Runway 35 RNAV Departures
View
Runway 17 RNAV Arrivals
View
Runway 35 RNAV Arrivals
View
ILS Runway 17
View
RNAV Runway 17
View
RNAV Runway 35
View
VOR DME Runway 17
View
VOR DME Runway 35
View
VOR Runway 17
View
VOR Runway 35
View
Visual RNAV Runway 17
View
Visual RNAV Runway 35
View

Punta Cana International (MDPC)
Airport Diagram
View
Sectional Chart
View
BAVARO & JUANILO Visual Departures
View
BERE2A, BETI2A, KATO2A, PIXA2A RNAV Departures (RWY 08)
View
BERE2B, BETI2B, KATO2B, PIXA2B RNAV Departures (RWY 26)
View
BETI1N, KATO1N, MELA1N, PIXA1N RNAV Departures (RWY 09)
View
BETI1Q, KATO1Q, MELA1Q, PIXA1Q RNAV Departures (RWY 27)
View
BEREL3, KATOK3, ORBITA3, PIXAR3 Departures (RWY 09)
View
BEREL5, KATOK5, ORBITA5, PIXAR5 Departures (RWY 27)
View
BEREL7, KATOK7, ORBITA7, PIXAR7 Departures (RWY 08)
View
BEREL9, KATOK9, ORBITA9, PIXAR9 Departures (RWY 26)
View
GOSU2A, MELA2A, POBE2A RNAV Departures (RWY 08)
View
GOSU2B, MELA2B, POBE2B RNAV Departures (RWY 26)
View
GOSUL3, MELLA3, POBEP3 Departures (RWY 09)
View
GOSUL5, MELLA5, POBEP5 Departures (RWY 27)
View
GOSUL7, MELLA7, POBEP7 Departures (RWY 08)
View
GOSUL9, MELLA9, POBEP9 Departures (RWY 26)
View
Runway 09 RNAV Arrivals
View
Runway 27 RNAV Arrivals
View
RNAV Runway 08
View
RNAV Runway 09
View
RNAV Runway 26
View
RNAV Runway 27
View
VOR DME Runway 08
View
VOR DME Runway 09
View
VOR Runway 08
View
VOR Runway 09
View
VOR Runway 26
View
VOR Runway 27
View
Visual RNAV Runway 09
View
Visual RNAV Runway 27
View

Cibao International (MDST)
Airport Diagram
View
Sectional Chart
View
PEKSA 1 Departure (RWY 11)
View
PEKSA 2 Departure (RWY 11)
View
PEMPO 1 Departure (RWY 29)
View
PEMPO 2 Departure (RWY 29)
View
Runway 11 RNAV Departures
View
Runway 29 RNAV Departures
View
Runway 11 RNAV Arrivals
View
Runway 29 RNAV Arrivals
View
ILS DME Runway 11
View
RNAV Runway 11
View
RNAV Runway 29
View
VOR DME Runway 11
View
VOR DME Runway 29
View
VOR Runway 11
View
VOR Runway 29
View
Visual RNAV Runway 11
View
Visual RNAV Runway 29
View
Puerto Plata International (MDPP)
Airport Diagram
View
Sectional Chart
View
ASIV1C, KODI1C, POKE1C, RETA1C, SEKA1C, RNAV Departures (RWY 08)
View
ASIV1F, KODI1F, POKE1F, RETA1F, SEKA1F, RNAV Departures (RWY 26)
View
POKIL1 Departure (RWY 08)
View
Runway 08 RNAV Arrivals
View
Runway 26 RNAV Arrivals
View
RNAV Runway 08
View
RNAV Runway 26
View
VOR DME Runway 26
View
VOR Runway 26
View